createdAt,value
2022-09-29T00:00:29.672Z,3.29
2022-09-29T00:02:57.441Z,3.43
2022-09-29T00:05:25.110Z,3.09
2022-09-29T00:07:52.814Z,3.40
2022-09-29T00:10:20.615Z,3.17
2022-09-29T00:12:48.172Z,3.14
2022-09-29T00:15:15.765Z,3.30
2022-09-29T00:18:02.772Z,3.21
2022-09-29T00:20:31.217Z,3.64
2022-09-29T00:22:58.813Z,3.56
2022-09-29T00:25:26.450Z,3.54
2022-09-29T00:27:54.235Z,3.57
2022-09-29T00:30:22.066Z,3.27
2022-09-29T00:32:49.666Z,3.38
2022-09-29T00:35:18.282Z,3.53
2022-09-29T00:37:46.122Z,3.53
2022-09-29T00:40:13.698Z,3.50
2022-09-29T00:42:41.227Z,3.49
2022-09-29T00:45:18.099Z,3.40
2022-09-29T00:47:50.833Z,3.39
2022-09-29T00:50:18.576Z,3.57
2022-09-29T00:52:52.124Z,3.60
2022-09-29T00:55:22.572Z,3.35
2022-09-29T00:57:55.447Z,3.77
2022-09-29T01:00:23.312Z,3.49
2022-09-29T01:02:54.145Z,3.44
2022-09-29T01:05:27.363Z,3.81
2022-09-29T01:07:55.321Z,3.42
2022-09-29T01:10:23.622Z,3.22
2022-09-29T01:12:51.187Z,3.52
2022-09-29T01:15:20.759Z,3.58
2022-09-29T01:17:49.249Z,3.30
2022-09-29T01:20:20.628Z,3.41
2022-09-29T01:23:00.888Z,3.52
2022-09-29T01:25:28.424Z,3.79
2022-09-29T01:28:01.774Z,3.74
2022-09-29T01:30:41.953Z,3.47
2022-09-29T01:33:09.625Z,3.50
2022-09-29T01:36:12.762Z,3.82
2022-09-29T01:38:58.969Z,3.74
2022-09-29T01:41:29.417Z,3.54
2022-09-29T01:43:59.881Z,3.31
2022-09-29T01:46:31.954Z,3.24
2022-09-29T01:49:02.716Z,3.58
2022-09-29T01:51:43.084Z,3.34
2022-09-29T01:54:18.550Z,3.34
2022-09-29T01:56:57.618Z,3.65
2022-09-29T01:59:31.249Z,3.27
2022-09-29T02:02:03.733Z,3.45
2022-09-29T02:04:35.173Z,3.21
2022-09-29T02:07:07.285Z,3.24
2022-09-29T02:09:42.751Z,3.58
2022-09-29T02:12:14.128Z,3.45
2022-09-29T02:14:46.536Z,3.32
2022-09-29T02:17:20.071Z,3.16
2022-09-29T02:19:50.974Z,3.22
2022-09-29T02:22:19.795Z,2.96
2022-09-29T02:24:49.375Z,3.25
2022-09-29T02:27:17.642Z,2.97
2022-09-29T02:29:45.207Z,3.19
2022-09-29T02:32:13.446Z,2.97
2022-09-29T02:34:46.164Z,2.81
2022-09-29T02:37:19.743Z,3.03
2022-09-29T02:39:47.281Z,3.16
2022-09-29T02:42:41.004Z,3.33
2022-09-29T02:45:11.535Z,2.99
2022-09-29T02:47:50.769Z,2.97
2022-09-29T02:50:21.336Z,3.09
2022-09-29T02:52:55.090Z,2.97
2022-09-29T02:55:33.248Z,2.78
2022-09-29T02:58:11.176Z,2.99
2022-09-29T03:00:40.465Z,2.76
2022-09-29T03:03:08.348Z,2.84
2022-09-29T03:05:36.461Z,2.92
2022-09-29T03:08:04.113Z,3.23
2022-09-29T03:10:31.699Z,3.23
2022-09-29T03:12:59.564Z,3.06
2022-09-29T03:15:27.185Z,3.14
2022-09-29T03:17:55.219Z,3.29
2022-09-29T03:20:22.853Z,3.42
2022-09-29T03:22:50.511Z,3.31
2022-09-29T03:25:18.184Z,2.99
2022-09-29T03:27:46.558Z,3.44
2022-09-29T03:30:14.232Z,3.54
2022-09-29T03:32:43.410Z,3.44
2022-09-29T03:35:11.662Z,3.40
2022-09-29T03:37:39.239Z,3.29
2022-09-29T03:40:07.115Z,3.48
2022-09-29T03:42:34.874Z,3.57
2022-09-29T03:45:02.380Z,3.84
2022-09-29T03:47:29.952Z,4.61
2022-09-29T03:49:57.553Z,4.30
2022-09-29T03:52:25.088Z,4.04
2022-09-29T03:54:52.638Z,4.20
2022-09-29T03:57:20.216Z,4.07
2022-09-29T03:59:47.766Z,3.87
2022-09-29T04:02:18.341Z,4.62
2022-09-29T04:04:46.296Z,6.26
2022-09-29T04:07:13.804Z,6.35
2022-09-29T04:09:41.407Z,4.57
2022-09-29T04:12:09.065Z,4.46
2022-09-29T04:14:36.663Z,4.90
2022-09-29T04:17:04.191Z,5.01
2022-09-29T04:19:31.780Z,4.67
2022-09-29T04:21:59.346Z,4.44
2022-09-29T04:24:27.108Z,4.35
2022-09-29T04:26:54.641Z,4.31
2022-09-29T04:29:22.315Z,4.10
2022-09-29T04:31:49.857Z,4.00
2022-09-29T04:34:19.194Z,4.17
2022-09-29T04:36:46.892Z,4.32
2022-09-29T04:39:14.709Z,3.94
2022-09-29T04:41:42.424Z,4.10
2022-09-29T04:44:10.041Z,4.10
2022-09-29T04:46:37.712Z,4.57
2022-09-29T04:49:05.334Z,4.17
2022-09-29T04:51:32.871Z,4.99
2022-09-29T04:54:00.471Z,5.18
2022-09-29T04:56:31.427Z,6.66
2022-09-29T04:58:59.500Z,6.40
2022-09-29T05:01:27.224Z,6.91
2022-09-29T05:03:54.824Z,7.32
2022-09-29T05:06:23.048Z,7.62
2022-09-29T05:08:50.798Z,6.93
2022-09-29T05:11:18.428Z,7.13
2022-09-29T05:13:49.111Z,7.04
2022-09-29T05:16:17.060Z,6.60
2022-09-29T05:18:44.631Z,7.15
2022-09-29T05:21:29.151Z,7.99
2022-09-29T05:23:57.822Z,7.81
2022-09-29T05:26:25.714Z,8.02
2022-09-29T05:28:53.445Z,8.63
2022-09-29T05:31:21.104Z,8.78
2022-09-29T05:33:48.814Z,9.08
2022-09-29T05:36:16.614Z,9.56
2022-09-29T05:38:44.253Z,9.58
2022-09-29T05:41:12.746Z,9.57
2022-09-29T05:43:40.749Z,9.43
2022-09-29T05:46:10.171Z,9.80
2022-09-29T05:48:38.098Z,10.00
2022-09-29T05:51:10.380Z,10.09
2022-09-29T05:53:38.225Z,10.89
2022-09-29T05:56:11.035Z,11.72
2022-09-29T05:58:39.219Z,11.50
2022-09-29T06:01:14.786Z,11.39
2022-09-29T06:03:43.256Z,10.83
2022-09-29T06:06:13.850Z,10.55
2022-09-29T06:08:42.161Z,9.71
2022-09-29T06:11:11.695Z,9.78
2022-09-29T06:13:43.992Z,9.73
2022-09-29T06:16:12.648Z,10.15
2022-09-29T06:18:41.103Z,10.07
2022-09-29T06:21:13.582Z,10.44
2022-09-29T06:23:41.731Z,10.71
2022-09-29T06:26:11.090Z,11.09
2022-09-29T06:28:39.303Z,11.10
2022-09-29T06:31:10.280Z,11.23
2022-09-29T06:33:38.354Z,10.95
2022-09-29T06:36:50.968Z,11.15
2022-09-29T06:39:19.074Z,11.70
2022-09-29T06:41:56.624Z,11.95
2022-09-29T06:44:26.712Z,11.67
2022-09-29T06:46:55.210Z,11.83
2022-09-29T06:49:24.637Z,11.89
2022-09-29T06:51:52.215Z,11.20
2022-09-29T06:54:21.611Z,11.09
2022-09-29T06:56:53.417Z,11.04
2022-09-29T06:59:21.292Z,11.53
2022-09-29T07:01:51.023Z,11.65
2022-09-29T07:04:21.370Z,13.27
2022-09-29T07:06:49.821Z,14.12
2022-09-29T07:09:19.013Z,13.42
2022-09-29T07:11:49.866Z,13.24
2022-09-29T07:14:18.817Z,14.63
2022-09-29T07:16:49.252Z,16.27
2022-09-29T07:19:18.288Z,16.21
2022-09-29T07:21:46.803Z,15.06
2022-09-29T07:24:14.652Z,15.36
2022-09-29T07:26:42.613Z,14.92
2022-09-29T07:29:15.283Z,15.09
2022-09-29T07:31:51.535Z,15.79
2022-09-29T07:34:21.414Z,16.22
2022-09-29T07:36:49.784Z,15.95
2022-09-29T07:39:19.764Z,15.21
2022-09-29T07:41:47.760Z,15.12
2022-09-29T07:44:15.646Z,15.71
2022-09-29T07:46:43.273Z,15.71
2022-09-29T07:49:11.112Z,15.86
2022-09-29T07:51:38.637Z,15.92
2022-09-29T07:54:06.944Z,15.95
2022-09-29T07:56:35.437Z,15.26
2022-09-29T07:59:03.551Z,15.01
2022-09-29T08:01:32.035Z,14.86
2022-09-29T08:03:59.736Z,14.85
2022-09-29T08:06:28.504Z,16.28
2022-09-29T08:09:04.239Z,17.23
2022-09-29T08:11:34.306Z,17.00
2022-09-29T08:14:02.431Z,17.39
2022-09-29T08:16:30.843Z,17.96
2022-09-29T08:18:59.037Z,17.78
2022-09-29T08:21:27.001Z,18.34
2022-09-29T08:23:54.732Z,18.18
2022-09-29T08:26:35.286Z,18.21
2022-09-29T08:29:08.916Z,18.61
2022-09-29T08:31:40.226Z,18.91
2022-09-29T08:34:07.927Z,19.46
2022-09-29T08:36:36.738Z,20.56
2022-09-29T08:39:05.224Z,21.09
2022-09-29T08:41:33.966Z,20.81
2022-09-29T08:44:28.036Z,20.59
2022-09-29T08:47:10.807Z,19.66
2022-09-29T08:50:03.646Z,18.74
2022-09-29T08:52:49.695Z,15.85
2022-09-29T08:55:22.024Z,15.23
2022-09-29T08:57:55.396Z,17.82
2022-09-29T09:00:27.629Z,18.43
2022-09-29T09:02:59.386Z,19.90
2022-09-29T09:05:26.976Z,20.75
2022-09-29T09:07:55.161Z,20.38
2022-09-29T09:10:22.638Z,19.07
2022-09-29T09:13:07.402Z,18.88
2022-09-29T09:15:34.934Z,17.50
2022-09-29T09:18:04.432Z,17.20
2022-09-29T09:20:55.189Z,16.19
2022-09-29T09:23:37.940Z,15.09
2022-09-29T09:26:05.569Z,15.08
2022-09-29T09:28:37.019Z,15.59
2022-09-29T09:31:07.643Z,15.95
2022-09-29T09:33:44.908Z,17.08
2022-09-29T09:36:16.419Z,18.44
2022-09-29T09:38:55.076Z,18.01
2022-09-29T09:41:24.766Z,18.21
2022-09-29T09:43:58.888Z,18.81
2022-09-29T09:46:34.623Z,18.75
2022-09-29T09:49:17.958Z,16.82
2022-09-29T09:51:57.445Z,13.24
2022-09-29T09:54:40.383Z,10.44
2022-09-29T09:57:07.921Z,11.21
2022-09-29T09:59:35.608Z,12.09
2022-09-29T10:02:03.275Z,11.86
2022-09-29T10:04:32.796Z,10.78
2022-09-29T10:07:00.939Z,11.26
2022-09-29T10:09:29.021Z,12.52
2022-09-29T10:11:57.368Z,11.98
2022-09-29T10:14:27.038Z,11.82
2022-09-29T10:17:10.462Z,11.63
2022-09-29T10:19:56.758Z,11.95
2022-09-29T10:22:25.001Z,11.63
2022-09-29T10:24:57.007Z,12.35
2022-09-29T10:27:28.645Z,12.81
2022-09-29T10:29:58.492Z,13.81
2022-09-29T10:32:36.640Z,10.62
2022-09-29T10:35:24.118Z,8.23
2022-09-29T10:38:12.011Z,7.07
2022-09-29T10:40:53.388Z,5.42
2022-09-29T10:43:32.375Z,5.03
2022-09-29T10:46:00.160Z,5.69
2022-09-29T10:48:28.105Z,6.24
2022-09-29T10:53:35.111Z,6.27
2022-09-29T10:56:25.074Z,6.16
2022-09-29T10:59:04.459Z,5.60
2022-09-29T11:01:46.113Z,6.10
2022-09-29T11:04:26.939Z,5.98
2022-09-29T11:06:54.648Z,4.87
2022-09-29T11:09:22.323Z,4.60
2022-09-29T11:11:50.065Z,5.69
2022-09-29T11:14:32.120Z,5.22
2022-09-29T11:17:02.085Z,5.24
2022-09-29T11:19:30.789Z,5.07
2022-09-29T11:21:58.708Z,3.91
2022-09-29T11:24:29.312Z,3.98
2022-09-29T11:27:05.950Z,3.62
2022-09-29T11:29:39.907Z,3.56
2022-09-29T11:32:26.156Z,3.97
2022-09-29T11:35:16.301Z,3.51
2022-09-29T11:38:02.207Z,4.24
2022-09-29T11:40:41.932Z,4.14
2022-09-29T11:43:15.456Z,4.08
2022-09-29T11:46:06.469Z,4.06
2022-09-29T11:48:34.289Z,3.80
2022-09-29T11:51:01.873Z,4.31
2022-09-29T11:53:29.604Z,4.13
2022-09-29T11:56:17.381Z,3.81
2022-09-29T11:59:03.553Z,4.00
2022-09-29T12:01:46.676Z,3.72
2022-09-29T12:04:16.947Z,3.63
2022-09-29T12:06:50.725Z,3.48
2022-09-29T12:09:24.272Z,3.74
2022-09-29T12:12:11.586Z,3.53
2022-09-29T12:14:58.671Z,3.04
2022-09-29T12:17:31.322Z,3.35
2022-09-29T12:20:07.072Z,3.22
2022-09-29T12:22:36.950Z,3.22
2022-09-29T12:25:06.601Z,3.32
2022-09-29T12:27:40.487Z,3.14
2022-09-29T12:30:18.543Z,3.31
2022-09-29T12:33:06.551Z,3.67
2022-09-29T12:35:40.082Z,3.89
2022-09-29T12:38:32.971Z,4.42
2022-09-29T12:41:22.151Z,3.97
2022-09-29T12:43:52.698Z,3.93
2022-09-29T12:46:41.535Z,3.87
2022-09-29T12:49:19.016Z,3.47
2022-09-29T12:51:49.385Z,3.29
2022-09-29T12:54:35.325Z,3.43
2022-09-29T12:57:16.448Z,3.10
2022-09-29T12:59:51.127Z,3.09
2022-09-29T13:02:21.871Z,3.15
2022-09-29T13:05:07.760Z,3.13
2022-09-29T13:07:47.223Z,3.30
2022-09-29T13:10:23.323Z,3.21
2022-09-29T13:13:06.216Z,3.35
2022-09-29T13:15:59.241Z,2.90
2022-09-29T13:19:14.657Z,2.99
2022-09-29T13:21:55.163Z,2.94
2022-09-29T13:24:25.638Z,2.70
2022-09-29T13:26:53.249Z,2.97
2022-09-29T13:29:23.937Z,2.82
2022-09-29T13:31:54.177Z,2.93
2022-09-29T13:34:38.619Z,3.18
2022-09-29T13:37:14.785Z,3.52
2022-09-29T13:39:44.315Z,3.29
2022-09-29T13:42:30.372Z,3.07
2022-09-29T13:45:17.855Z,2.93
2022-09-29T13:47:50.287Z,3.08
2022-09-29T13:50:37.060Z,3.09
2022-09-29T13:53:20.293Z,3.06
2022-09-29T13:55:55.872Z,3.16
2022-09-29T13:58:30.721Z,3.26
2022-09-29T14:01:00.534Z,3.20
2022-09-29T14:03:32.994Z,3.13
2022-09-29T14:06:17.105Z,2.93
2022-09-29T14:08:55.104Z,2.77
2022-09-29T14:11:34.725Z,2.98
2022-09-29T14:14:09.292Z,3.08
2022-09-29T14:16:53.733Z,3.09
2022-09-29T14:19:43.808Z,3.15
2022-09-29T14:22:30.204Z,3.03
2022-09-29T14:25:10.760Z,3.08
2022-09-29T14:27:38.923Z,2.88
2022-09-29T14:30:09.689Z,3.17
2022-09-29T14:32:37.349Z,3.40
2022-09-29T14:35:15.024Z,3.54
2022-09-29T14:37:43.383Z,3.92
2022-09-29T14:40:28.617Z,3.83
2022-09-29T14:43:22.584Z,3.58
2022-09-29T14:46:31.408Z,3.31
2022-09-29T14:49:39.972Z,3.60
2022-09-29T14:52:17.284Z,3.70
2022-09-29T14:55:05.130Z,3.73
2022-09-29T14:57:35.753Z,3.73
2022-09-29T15:00:13.266Z,3.26
2022-09-29T15:02:43.586Z,3.16
2022-09-29T15:05:31.613Z,3.12
2022-09-29T15:08:00.609Z,3.44
2022-09-29T15:10:28.193Z,3.13
2022-09-29T15:13:15.032Z,3.22
2022-09-29T15:15:46.634Z,3.14
2022-09-29T15:18:23.887Z,3.22
2022-09-29T15:20:56.170Z,2.97
2022-09-29T15:23:32.865Z,3.62
2022-09-29T15:26:01.296Z,4.03
2022-09-29T15:28:29.279Z,4.16
2022-09-29T15:31:00.823Z,4.06
2022-09-29T15:33:30.295Z,3.93
2022-09-29T15:36:17.324Z,4.29
2022-09-29T15:38:44.958Z,4.42
2022-09-29T15:41:16.998Z,4.89
2022-09-29T15:43:50.476Z,5.34
2022-09-29T15:46:20.400Z,5.47
2022-09-29T15:49:06.953Z,5.63
2022-09-29T15:51:34.916Z,5.91
2022-09-29T15:54:10.639Z,5.49
2022-09-29T15:56:58.934Z,5.63
2022-09-29T15:59:43.741Z,5.15
2022-09-29T16:02:19.625Z,4.59
2022-09-29T16:04:50.757Z,4.67
2022-09-29T16:07:28.152Z,4.20
2022-09-29T16:10:15.673Z,3.79
2022-09-29T16:12:49.449Z,4.11
2022-09-29T16:15:22.546Z,4.19
2022-09-29T16:17:51.526Z,4.50
2022-09-29T16:20:33.926Z,4.58
2022-09-29T16:23:09.530Z,4.31
2022-09-29T16:25:37.128Z,8.02
2022-09-29T16:28:07.301Z,16.03
2022-09-29T16:30:39.059Z,7.66
2022-09-29T16:33:20.817Z,5.57
2022-09-29T16:35:53.000Z,4.14
2022-09-29T16:38:36.178Z,5.31
2022-09-29T16:41:09.709Z,5.82
2022-09-29T16:43:38.016Z,5.62
2022-09-29T16:46:07.328Z,4.06
2022-09-29T16:48:44.610Z,4.52
2022-09-29T16:54:05.867Z,5.66
2022-09-29T16:56:35.451Z,6.32
2022-09-29T16:59:03.227Z,6.39
2022-09-29T17:01:30.802Z,5.79
2022-09-29T17:03:58.410Z,5.51
2022-09-29T17:06:25.955Z,5.24
2022-09-29T17:08:54.177Z,5.32
2022-09-29T17:11:21.797Z,5.60
2022-09-29T17:13:50.501Z,5.59
2022-09-29T17:16:21.308Z,5.34
2022-09-29T17:18:50.903Z,5.06
2022-09-29T17:21:24.311Z,5.18
2022-09-29T17:23:55.033Z,5.29
2022-09-29T17:27:02.019Z,6.14
2022-09-29T17:29:36.392Z,5.64
2022-09-29T17:32:11.019Z,5.37
2022-09-29T17:34:38.613Z,5.61
2022-09-29T17:37:06.419Z,5.86
2022-09-29T17:39:34.023Z,5.70
2022-09-29T17:42:01.753Z,5.83
2022-09-29T17:44:29.673Z,5.84
2022-09-29T17:47:11.103Z,6.55
2022-09-29T17:49:50.100Z,5.80
2022-09-29T17:52:19.733Z,6.04
2022-09-29T17:54:47.611Z,6.18
2022-09-29T17:57:27.463Z,6.77
2022-09-29T17:59:55.300Z,6.67
2022-09-29T18:02:24.231Z,6.58
2022-09-29T18:04:54.422Z,6.41
2022-09-29T18:07:22.145Z,7.37
2022-09-29T18:09:49.747Z,7.86
2022-09-29T18:12:17.380Z,7.37
2022-09-29T18:14:44.912Z,7.04
2022-09-29T18:17:12.464Z,6.19
2022-09-29T18:19:40.329Z,6.22
2022-09-29T18:22:08.380Z,7.02
2022-09-29T18:24:36.362Z,8.14
2022-09-29T18:27:04.032Z,9.84
2022-09-29T18:29:32.097Z,6.26
2022-09-29T18:31:59.740Z,8.35
2022-09-29T18:34:30.970Z,6.34
2022-09-29T18:36:58.573Z,4.65
2022-09-29T18:39:26.625Z,3.45
2022-09-29T18:41:54.157Z,3.24
2022-09-29T18:44:24.613Z,3.19
2022-09-29T18:46:52.315Z,3.40
2022-09-29T18:49:20.004Z,3.13
2022-09-29T18:51:47.774Z,2.53
2022-09-29T18:54:15.889Z,2.14
2022-09-29T18:56:43.648Z,2.41
2022-09-29T18:59:12.121Z,2.36
2022-09-29T19:01:40.286Z,2.34
2022-09-29T19:04:09.455Z,2.02
2022-09-29T19:06:37.125Z,1.64
2022-09-29T19:09:04.778Z,2.43
2022-09-29T19:11:33.703Z,2.10
2022-09-29T19:14:01.485Z,1.89
2022-09-29T19:16:30.987Z,1.86
2022-09-29T19:18:59.296Z,2.02
2022-09-29T19:21:26.904Z,2.18
2022-09-29T19:23:54.514Z,2.05
2022-09-29T19:26:22.605Z,2.31
2022-09-29T19:28:50.215Z,2.56
2022-09-29T19:31:21.569Z,2.52
2022-09-29T19:33:49.246Z,2.68
2022-09-29T19:36:18.919Z,2.73
2022-09-29T19:38:46.722Z,2.29
2022-09-29T19:41:16.676Z,2.40
2022-09-29T19:43:45.739Z,2.47
2022-09-29T19:46:14.655Z,3.42
2022-09-29T19:48:43.461Z,4.63
2022-09-29T19:51:34.518Z,2.67
2022-09-29T19:54:20.546Z,2.83
2022-09-29T19:56:53.955Z,2.53
2022-09-29T19:59:23.970Z,2.47
2022-09-29T20:01:51.564Z,2.31
2022-09-29T20:04:20.118Z,2.49
2022-09-29T20:06:47.685Z,2.42
2022-09-29T20:09:16.385Z,2.63
2022-09-29T20:11:47.236Z,2.77
2022-09-29T20:14:16.001Z,2.69
2022-09-29T20:16:45.440Z,2.58
2022-09-29T20:19:15.727Z,2.75
2022-09-29T20:21:44.500Z,2.97
2022-09-29T20:24:14.403Z,3.03
2022-09-29T20:26:42.288Z,3.29
2022-09-29T20:29:10.698Z,3.29
2022-09-29T20:31:38.825Z,2.97
2022-09-29T20:34:07.582Z,2.81
2022-09-29T20:36:35.185Z,3.01
2022-09-29T20:39:03.420Z,3.09
2022-09-29T20:41:31.067Z,2.82
2022-09-29T20:44:00.660Z,2.69
2022-09-29T20:46:28.544Z,3.05
2022-09-29T20:48:58.063Z,3.27
2022-09-29T20:51:26.588Z,3.53
2022-09-29T20:53:55.375Z,3.81
2022-09-29T20:56:31.090Z,3.49
2022-09-29T20:58:59.753Z,3.95
2022-09-29T21:01:31.724Z,3.87
2022-09-29T21:04:00.956Z,3.98
2022-09-29T21:06:30.157Z,4.04
2022-09-29T21:08:58.838Z,3.82
2022-09-29T21:11:26.953Z,3.70
2022-09-29T21:13:58.670Z,3.98
2022-09-29T21:16:26.307Z,3.82
2022-09-29T21:18:54.327Z,4.22
2022-09-29T21:21:22.134Z,4.01
2022-09-29T21:23:50.662Z,3.90
2022-09-29T21:26:19.834Z,3.72
2022-09-29T21:28:49.731Z,3.93
2022-09-29T21:31:18.574Z,4.11
2022-09-29T21:33:50.049Z,4.22
2022-09-29T21:36:17.764Z,3.99
2022-09-29T21:38:45.542Z,4.04
2022-09-29T21:41:21.192Z,4.14
2022-09-29T21:43:50.305Z,4.26
2022-09-29T21:46:20.325Z,4.13
2022-09-29T21:48:55.346Z,4.68
2022-09-29T21:51:24.753Z,4.50
2022-09-29T21:53:54.583Z,4.63
2022-09-29T21:56:23.583Z,4.80
2022-09-29T21:58:52.463Z,4.88
2022-09-29T22:01:20.965Z,4.92
2022-09-29T22:03:49.285Z,5.00
2022-09-29T22:06:20.504Z,4.81
2022-09-29T22:08:49.485Z,5.12
2022-09-29T22:11:19.477Z,5.39
2022-09-29T22:13:51.089Z,5.35
2022-09-29T22:16:21.860Z,5.07
2022-09-29T22:19:05.935Z,5.07
2022-09-29T22:21:37.634Z,4.83
2022-09-29T22:24:05.286Z,4.83
2022-09-29T22:26:32.978Z,4.97
2022-09-29T22:29:01.738Z,4.72
2022-09-29T22:31:30.957Z,4.58
2022-09-29T22:34:00.433Z,4.43
2022-09-29T22:36:30.379Z,4.61
2022-09-29T22:38:58.565Z,4.49
2022-09-29T22:41:26.210Z,4.92
2022-09-29T22:43:55.472Z,4.71
2022-09-29T22:46:24.815Z,5.02
2022-09-29T22:48:52.373Z,4.71
2022-09-29T22:51:21.341Z,4.72
2022-09-29T22:53:49.476Z,4.64
2022-09-29T22:56:18.871Z,4.66
2022-09-29T22:58:47.098Z,4.21
2022-09-29T23:01:16.433Z,4.08
2022-09-29T23:03:45.571Z,4.22
2022-09-29T23:06:13.976Z,4.30
2022-09-29T23:08:42.102Z,4.33
2022-09-29T23:11:15.277Z,4.29
2022-09-29T23:13:43.977Z,4.50
2022-09-29T23:16:13.238Z,4.34
2022-09-29T23:18:44.300Z,4.81
2022-09-29T23:21:20.180Z,4.69
2022-09-29T23:23:48.287Z,4.79
2022-09-29T23:26:16.577Z,4.66
2022-09-29T23:28:44.323Z,4.51
2022-09-29T23:31:12.685Z,4.68
2022-09-29T23:33:40.324Z,4.86
2022-09-29T23:36:09.347Z,4.74
2022-09-29T23:38:59.714Z,4.96
2022-09-29T23:41:30.030Z,4.55
2022-09-29T23:43:59.711Z,4.74
2022-09-29T23:46:32.014Z,4.59
2022-09-29T23:49:00.186Z,4.93
2022-09-29T23:51:32.216Z,4.85
2022-09-29T23:54:00.625Z,4.90
2022-09-29T23:56:29.104Z,4.95
2022-09-29T23:58:57.106Z,4.66
